Time;durP1;ratioP1;P1;durP2;ratioP2;P2;SDS_P1;SDS_P2;PMS_P1;PMS_P2;Temp;Humidity;BMP_temperature;BMP_pressure;BME280_temperature;BME280_humidity;BME280_pressure;Samples;Min_cycle;Max_cycle;Signal;HPM_P1;HPM_P2
2022/07/12 00:01:54;;;;;;;0.98;0.90;;;16.20;99.90;;;;;;4957835;28;20180;-82
2022/07/12 00:04:20;;;;;;;1.73;1.10;;;16.20;99.90;;;;;;4957843;28;20616;-83
2022/07/12 00:06:46;;;;;;;1.55;0.80;;;16.20;99.90;;;;;;4957939;28;20204;-83
2022/07/12 00:09:12;;;;;;;1.33;0.80;;;16.10;99.90;;;;;;4963110;28;20264;-82
2022/07/12 00:11:38;;;;;;;0.95;0.70;;;16.10;99.90;;;;;;4957579;29;20659;-82
2022/07/12 00:14:04;;;;;;;1.83;1.00;;;16.00;99.90;;;;;;4957749;29;20201;-82
2022/07/12 00:16:30;;;;;;;1.48;0.90;;;15.90;99.90;;;;;;4957394;28;20196;-82
2022/07/12 00:18:56;;;;;;;1.77;1.10;;;15.80;99.90;;;;;;4957846;29;20240;-85
2022/07/12 00:21:21;;;;;;;1.60;0.90;;;15.80;99.90;;;;;;4956354;29;20189;-84
2022/07/12 00:23:48;;;;;;;1.77;1.20;;;15.70;99.90;;;;;;4957659;29;20174;-85
2022/07/12 00:26:14;;;;;;;1.10;0.93;;;15.70;99.90;;;;;;4957171;29;20233;-86
2022/07/12 00:28:40;;;;;;;1.42;1.00;;;15.70;99.90;;;;;;4956445;29;20181;-83
2022/07/12 00:31:05;;;;;;;1.35;1.10;;;15.60;99.90;;;;;;4957697;28;20181;-83
2022/07/12 00:33:31;;;;;;;1.55;1.20;;;15.60;99.90;;;;;;4957550;29;20189;-84
2022/07/12 00:35:57;;;;;;;0.70;0.70;;;15.60;99.90;;;;;;4956093;28;20205;-82
2022/07/12 00:38:23;;;;;;;1.13;1.02;;;15.60;99.90;;;;;;4961491;28;20192;-82
2022/07/12 00:40:49;;;;;;;1.48;1.10;;;15.60;99.90;;;;;;4976363;28;20188;-82
2022/07/12 00:43:15;;;;;;;1.13;0.88;;;15.50;99.90;;;;;;4975065;28;20231;-82
2022/07/12 00:45:41;;;;;;;1.35;1.10;;;15.40;99.90;;;;;;4976399;28;20244;-82
2022/07/12 00:48:08;;;;;;;1.77;1.20;;;15.40;99.90;;;;;;4974679;28;20187;-82
2022/07/12 00:50:34;;;;;;;1.30;1.05;;;15.40;99.90;;;;;;4976348;28;20180;-82
2022/07/12 00:52:59;;;;;;;1.42;1.00;;;15.40;99.90;;;;;;4976385;28;20525;-82
2022/07/12 00:55:26;;;;;;;1.13;1.02;;;15.40;99.90;;;;;;4974671;28;20540;-82
2022/07/12 00:57:52;;;;;;;1.23;0.90;;;15.40;99.90;;;;;;4976262;28;20160;-83
2022/07/12 01:00:27;;;;;;;1.42;1.30;;;15.40;99.90;;;;;;4974942;28;20228;-82
2022/07/12 01:02:54;;;;;;;1.00;0.98;;;15.40;99.90;;;;;;4976154;28;20251;-83
2022/07/12 01:05:20;;;;;;;1.20;1.00;;;15.30;99.90;;;;;;4976032;28;20763;-83
2022/07/12 01:07:46;;;;;;;1.55;1.10;;;15.30;99.90;;;;;;4976090;28;20165;-82
2022/07/12 01:10:12;;;;;;;1.35;1.00;;;15.30;99.90;;;;;;4967471;28;20193;-82
2022/07/12 01:12:37;;;;;;;1.63;1.10;;;15.30;99.90;;;;;;4955128;29;20514;-83
2022/07/12 01:17:39;;;;;;;4.43;1.40;;;15.30;99.90;;;;;;5103171;23;20236;-81
2022/07/12 01:20:07;;;;;;;1.45;1.10;;;15.20;99.90;;;;;;4974608;28;20183;-81
2022/07/12 01:22:34;;;;;;;2.70;1.40;;;15.20;99.90;;;;;;4975644;28;20184;-82
2022/07/12 01:25:02;;;;;;;1.63;1.10;;;15.20;99.90;;;;;;4973393;28;20227;-82
2022/07/12 01:27:28;;;;;;;2.03;1.42;;;15.10;99.90;;;;;;4965059;28;20204;-82
2022/07/12 01:29:55;;;;;;;1.63;1.45;;;15.10;99.90;;;;;;4975714;28;20596;-82
2022/07/12 01:32:26;;;;;;;1.73;1.40;;;15.10;99.90;;;;;;4974007;28;20193;-82
2022/07/12 01:34:54;;;;;;;2.28;1.20;;;15.00;99.90;;;;;;4974272;28;20184;-82
2022/07/12 01:37:21;;;;;;;1.38;1.27;;;15.00;99.90;;;;;;4975389;28;20180;-83
2022/07/12 01:39:49;;;;;;;1.70;1.30;;;15.00;99.90;;;;;;4974072;28;20172;-83
2022/07/12 01:42:15;;;;;;;1.73;1.50;;;15.00;99.90;;;;;;4975374;28;20264;-82
2022/07/12 01:44:41;;;;;;;2.50;1.58;;;15.10;99.90;;;;;;4989633;28;20218;-83
2022/07/12 01:47:07;;;;;;;3.60;1.65;;;15.00;99.90;;;;;;4982413;28;20180;-84
2022/07/12 01:49:33;;;;;;;1.73;1.50;;;15.00;99.90;;;;;;4974613;28;20181;-83
2022/07/12 01:51:58;;;;;;;1.83;1.42;;;15.00;99.90;;;;;;4974051;28;20176;-83
2022/07/12 01:54:25;;;;;;;1.92;1.65;;;15.00;99.90;;;;;;4975055;28;20185;-81
2022/07/12 01:56:52;;;;;;;1.80;1.48;;;15.00;99.90;;;;;;4973692;28;20177;-82
2022/07/12 01:59:19;;;;;;;2.25;1.70;;;15.00;99.90;;;;;;4974526;28;20172;-82
2022/07/12 02:01:46;;;;;;;3.25;1.77;;;15.00;99.90;;;;;;4974720;28;20247;-82
2022/07/12 02:04:11;;;;;;;4.65;1.70;;;15.00;99.90;;;;;;4974838;28;20207;-82
2022/07/12 02:06:38;;;;;;;1.80;1.52;;;15.10;99.90;;;;;;4974788;28;20212;-82
2022/07/12 02:09:04;;;;;;;3.40;1.75;;;15.10;99.90;;;;;;4989564;28;20570;-83
2022/07/12 02:11:30;;;;;;;2.60;1.85;;;15.10;99.90;;;;;;4994387;28;20247;-83
2022/07/12 02:13:57;;;;;;;2.53;1.67;;;15.00;99.90;;;;;;4992914;28;20274;-84
2022/07/12 02:16:22;;;;;;;1.92;1.50;;;15.00;99.90;;;;;;4991729;28;20569;-82
2022/07/12 02:18:48;;;;;;;1.65;1.40;;;15.00;99.90;;;;;;4993442;28;20182;-83
2022/07/12 02:21:14;;;;;;;2.05;1.70;;;14.90;99.90;;;;;;4993890;28;20188;-82
2022/07/12 02:23:39;;;;;;;2.90;2.15;;;14.90;99.90;;;;;;4993063;28;20191;-83
2022/07/12 02:26:05;;;;;;;2.63;1.73;;;14.90;99.90;;;;;;4994151;28;20246;-83
2022/07/12 02:28:31;;;;;;;1.90;1.75;;;14.90;99.90;;;;;;4994129;28;20202;-83
2022/07/12 02:30:57;;;;;;;3.10;1.95;;;14.90;99.90;;;;;;4993047;28;20183;-83
2022/07/12 02:33:23;;;;;;;3.38;2.05;;;14.90;99.90;;;;;;4992552;28;20186;-82
2022/07/12 02:35:49;;;;;;;2.38;1.88;;;15.00;99.90;;;;;;4994232;28;20175;-83
2022/07/12 02:38:15;;;;;;;3.75;2.75;;;15.00;99.90;;;;;;4974175;28;20176;-82
2022/07/12 02:40:53;;;;;;;4.18;2.85;;;15.00;99.90;;;;;;4973844;28;20189;-83
2022/07/12 02:43:21;;;;;;;4.22;2.78;;;15.00;99.90;;;;;;4955429;28;20220;-82
2022/07/12 02:45:47;;;;;;;4.18;3.10;;;15.10;99.90;;;;;;4955198;28;20209;-82
2022/07/12 02:48:13;;;;;;;4.90;3.47;;;15.10;99.90;;;;;;4973205;28;20234;-82
2022/07/12 02:50:42;;;;;;;7.32;3.55;;;15.10;99.90;;;;;;4971870;28;20258;-83
2022/07/12 02:53:09;;;;;;;6.70;3.58;;;15.10;99.90;;;;;;4957562;28;20227;-82
2022/07/12 02:55:36;;;;;;;8.45;3.55;;;15.20;99.90;;;;;;4955349;28;20174;-83
2022/07/12 02:58:02;;;;;;;5.70;3.75;;;15.10;99.90;;;;;;4955292;29;20657;-82
2022/07/12 03:00:29;;;;;;;6.07;3.67;;;15.10;99.90;;;;;;4955209;29;20185;-83
2022/07/12 03:02:55;;;;;;;5.35;3.65;;;15.20;99.90;;;;;;4953688;28;20185;-82
2022/07/12 03:05:21;;;;;;;4.55;3.25;;;15.10;99.90;;;;;;4954940;28;20534;-84
2022/07/12 03:07:46;;;;;;;5.75;4.55;;;15.10;99.90;;;;;;4955067;29;20500;-84
2022/07/12 03:10:12;;;;;;;6.60;4.35;;;15.10;99.90;;;;;;4955816;28;20173;-84
2022/07/12 03:12:38;;;;;;;6.38;4.15;;;15.00;99.90;;;;;;4970679;28;20511;-83
2022/07/12 03:15:05;;;;;;;6.40;4.32;;;15.00;99.90;;;;;;4960994;28;20189;-82
2022/07/12 03:17:32;;;;;;;8.45;4.20;;;15.00;99.90;;;;;;4976080;28;20326;-82
2022/07/12 03:19:57;;;;;;;5.32;4.00;;;14.90;99.90;;;;;;4976565;28;20576;-81
2022/07/12 03:22:23;;;;;;;6.20;4.25;;;14.90;99.90;;;;;;4976827;28;20267;-82
2022/07/12 03:24:50;;;;;;;4.45;3.75;;;15.00;99.90;;;;;;4976324;28;20223;-83
2022/07/12 03:27:15;;;;;;;3.67;3.20;;;14.90;99.90;;;;;;4977828;28;20227;-82
2022/07/12 03:29:41;;;;;;;6.38;4.05;;;14.90;99.90;;;;;;4976533;28;20176;-83
2022/07/12 03:32:07;;;;;;;3.40;3.10;;;14.90;99.90;;;;;;4976074;28;20606;-82
2022/07/12 03:34:33;;;;;;;4.07;3.22;;;14.90;99.90;;;;;;4977553;28;20231;-82
2022/07/12 03:36:59;;;;;;;4.15;3.30;;;14.90;99.90;;;;;;4976606;28;20540;-83
2022/07/12 03:39:25;;;;;;;6.40;3.75;;;15.00;99.90;;;;;;4977453;28;20205;-82
2022/07/12 03:41:51;;;;;;;4.30;2.97;;;14.90;99.90;;;;;;4977608;28;20251;-82
2022/07/12 03:44:16;;;;;;;4.45;3.10;;;14.90;99.90;;;;;;4981879;28;20172;-83
2022/07/12 03:46:42;;;;;;;3.70;3.10;;;14.90;99.90;;;;;;4988157;28;20287;-83
2022/07/12 03:49:08;;;;;;;3.78;3.00;;;14.90;99.90;;;;;;4976158;28;20177;-83
2022/07/12 03:51:33;;;;;;;6.00;3.00;;;14.90;99.90;;;;;;4976180;28;20177;-84
2022/07/12 03:53:59;;;;;;;4.00;3.20;;;14.90;99.90;;;;;;4977243;28;20180;-83
2022/07/12 03:59:09;;;;;;;6.55;3.70;;;14.90;99.90;;;;;;4976926;28;20300;-82
2022/07/12 04:01:35;;;;;;;4.57;3.58;;;14.90;99.90;;;;;;4976870;28;20255;-82
2022/07/12 04:04:02;;;;;;;5.47;3.60;;;14.90;99.90;;;;;;4975799;28;20216;-82
2022/07/12 04:06:28;;;;;;;5.28;3.47;;;14.90;99.90;;;;;;4975639;28;20223;-82
2022/07/12 04:08:54;;;;;;;4.65;3.47;;;14.90;99.90;;;;;;4990326;28;20172;-81
2022/07/12 04:11:19;;;;;;;5.07;3.42;;;14.90;99.90;;;;;;4996335;28;20184;-81
2022/07/12 04:13:45;;;;;;;3.97;3.00;;;14.90;99.90;;;;;;4996226;28;20228;-82
2022/07/12 04:16:12;;;;;;;3.85;3.45;;;14.90;99.90;;;;;;4992032;28;20236;-82
2022/07/12 04:18:38;;;;;;;4.82;3.47;;;14.90;99.90;;;;;;4989194;28;20180;-82
2022/07/12 04:21:03;;;;;;;3.70;3.33;;;14.90;99.90;;;;;;4996200;28;20198;-83
2022/07/12 04:23:29;;;;;;;4.53;4.00;;;14.90;99.90;;;;;;4994001;28;20190;-82
2022/07/12 04:25:55;;;;;;;5.13;3.80;;;14.90;99.90;;;;;;4996079;28;20287;-82
2022/07/12 04:28:21;;;;;;;12.80;4.13;;;14.90;99.90;;;;;;4996009;28;20182;-83
2022/07/12 04:30:48;;;;;;;4.60;3.67;;;14.90;99.90;;;;;;4994898;28;20184;-81
2022/07/12 04:33:14;;;;;;;4.97;3.40;;;14.90;99.90;;;;;;4995680;28;20164;-82
2022/07/12 04:35:40;;;;;;;5.82;3.88;;;14.90;99.90;;;;;;4995891;28;20489;-83
2022/07/12 04:38:07;;;;;;;6.00;4.50;;;14.90;99.90;;;;;;4994637;28;20199;-82
2022/07/12 04:40:33;;;;;;;5.35;3.75;;;15.00;99.90;;;;;;4995732;28;20611;-82
2022/07/12 04:42:59;;;;;;;4.95;4.20;;;15.00;99.90;;;;;;4993825;28;20186;-82
2022/07/12 04:45:25;;;;;;;5.47;3.90;;;15.10;99.90;;;;;;4994221;28;20583;-81
2022/07/12 04:47:51;;;;;;;6.88;4.13;;;15.10;99.90;;;;;;4979395;28;20189;-82
2022/07/12 04:50:17;;;;;;;4.55;3.80;;;15.20;99.90;;;;;;4976306;28;20180;-82
2022/07/12 04:52:42;;;;;;;5.43;3.97;;;15.30;99.90;;;;;;4975310;28;20622;-82
2022/07/12 04:55:08;;;;;;;6.00;3.65;;;15.40;99.90;;;;;;4975877;28;20176;-82
2022/07/12 04:57:35;;;;;;;5.07;4.28;;;15.60;99.90;;;;;;4975985;28;20172;-81
2022/07/12 05:00:01;;;;;;;4.20;3.50;;;15.70;99.90;;;;;;4975529;28;20537;-81
2022/07/12 05:02:26;;;;;;;5.40;3.67;;;15.70;99.90;;;;;;4956283;29;20630;-82
2022/07/12 05:04:52;;;;;;;4.82;3.60;;;15.80;99.90;;;;;;4956625;29;20205;-81
2022/07/12 05:07:19;;;;;;;4.78;3.72;;;15.80;99.90;;;;;;4956713;29;20184;-81
2022/07/12 05:09:44;;;;;;;5.20;4.10;;;15.90;99.90;;;;;;4956718;29;20520;-81
2022/07/12 05:12:10;;;;;;;4.40;3.10;;;15.90;99.90;;;;;;4956370;29;20178;-82
2022/07/12 05:14:36;;;;;;;4.22;3.20;;;15.90;99.90;;;;;;4965403;28;20183;-82
2022/07/12 05:17:01;;;;;;;3.80;3.13;;;16.00;99.90;;;;;;4976502;28;20627;-83
2022/07/12 05:19:27;;;;;;;5.22;3.60;;;16.00;99.90;;;;;;4974274;28;20243;-81
2022/07/12 05:21:53;;;;;;;4.03;2.92;;;16.00;99.90;;;;;;4975503;28;20179;-81
2022/07/12 05:24:19;;;;;;;5.43;3.13;;;16.10;99.90;;;;;;4974667;28;20172;-82
2022/07/12 05:26:44;;;;;;;4.28;3.20;;;16.00;99.90;;;;;;4987369;28;20223;-81
2022/07/12 05:29:10;;;;;;;3.42;3.13;;;16.20;99.90;;;;;;4976094;28;20180;-81
2022/07/12 05:31:36;;;;;;;5.45;3.05;;;16.10;99.90;;;;;;4973940;28;20627;-81
2022/07/12 05:34:01;;;;;;;4.45;3.10;;;16.20;99.90;;;;;;4974979;28;20227;-82
2022/07/12 05:36:28;;;;;;;3.92;2.85;;;16.30;99.90;;;;;;4973630;28;20274;-81
2022/07/12 05:38:53;;;;;;;4.13;2.83;;;16.40;99.90;;;;;;4975189;28;20177;-81
2022/07/12 05:41:19;;;;;;;4.03;2.60;;;16.60;99.90;;;;;;4974850;28;20515;-81
2022/07/12 05:43:45;;;;;;;3.80;2.78;;;16.60;99.90;;;;;;4975040;28;20176;-83
2022/07/12 05:46:11;;;;;;;3.85;2.55;;;16.70;99.90;;;;;;4986439;28;20215;-81
2022/07/12 05:48:37;;;;;;;3.88;2.83;;;16.80;99.90;;;;;;4994233;28;20176;-82
2022/07/12 05:53:47;;;;;;;3.83;2.60;;;16.90;99.90;;;;;;4994408;28;20658;-81
2022/07/12 05:56:13;;;;;;;4.07;2.20;;;17.00;99.90;;;;;;4994366;28;20175;-82
2022/07/12 05:58:39;;;;;;;3.58;2.47;;;17.10;99.90;;;;;;4994834;28;20183;-82
2022/07/12 06:01:05;;;;;;;2.83;2.00;;;17.10;99.90;;;;;;4984252;28;20669;-83
2022/07/12 06:03:31;;;;;;;2.67;2.08;;;17.10;99.90;;;;;;4974367;28;20678;-84
2022/07/12 06:05:57;;;;;;;6.13;2.35;;;17.10;99.90;;;;;;4973395;28;20651;-82
2022/07/12 06:08:23;;;;;;;2.47;1.92;;;17.00;99.90;;;;;;4983067;28;20190;-84
2022/07/12 06:10:48;;;;;;;3.33;2.13;;;17.00;99.90;;;;;;4992920;28;20192;-85
2022/07/12 06:13:14;;;;;;;2.05;1.55;;;16.90;99.90;;;;;;4994247;28;20175;-81
2022/07/12 06:15:40;;;;;;;1.85;1.35;;;16.90;99.90;;;;;;4994111;28;20176;-82
2022/07/12 06:18:06;;;;;;;3.35;1.70;;;17.10;99.90;;;;;;4992807;28;20176;-82
2022/07/12 06:20:32;;;;;;;1.73;1.63;;;17.00;99.90;;;;;;4993440;28;20176;-82
2022/07/12 06:22:58;;;;;;;2.72;1.50;;;17.00;99.90;;;;;;4992613;28;20259;-82
2022/07/12 06:25:24;;;;;;;1.48;1.30;;;17.00;99.90;;;;;;4988844;28;20514;-82
2022/07/12 06:27:50;;;;;;;1.30;1.20;;;17.00;99.90;;;;;;4970537;28;20264;-82
2022/07/12 06:30:21;;;;;;;1.50;1.40;;;17.00;99.90;;;;;;4970485;28;20271;-83
2022/07/12 06:32:50;;;;;;;2.17;1.27;;;17.00;99.90;;;;;;4973566;28;20173;-83
2022/07/12 06:35:16;;;;;;;1.42;1.15;;;17.20;99.90;;;;;;4974186;28;20165;-84
2022/07/12 06:37:42;;;;;;;1.88;0.93;;;17.30;99.90;;;;;;4974563;28;20187;-83
2022/07/12 06:40:08;;;;;;;1.10;1.00;;;17.20;99.90;;;;;;4973338;28;20581;-83
2022/07/12 06:42:34;;;;;;;2.20;1.05;;;17.30;99.90;;;;;;4974408;28;20234;-82
2022/07/12 06:45:00;;;;;;;1.65;1.08;;;17.40;99.90;;;;;;4991391;28;20211;-83
2022/07/12 06:47:26;;;;;;;1.27;1.05;;;17.40;99.90;;;;;;4983887;28;20639;-82
2022/07/12 06:49:52;;;;;;;2.17;1.20;;;17.50;99.90;;;;;;4972846;28;20172;-83
2022/07/12 06:52:18;;;;;;;2.72;1.25;;;17.50;99.90;;;;;;4977330;28;20525;-81
2022/07/12 06:54:44;;;;;;;1.30;1.20;;;17.50;99.90;;;;;;4971603;28;20181;-82
2022/07/12 06:57:09;;;;;;;1.60;0.90;;;17.60;99.90;;;;;;4969118;28;20527;-81
2022/07/12 06:59:35;;;;;;;2.65;1.20;;;17.60;99.90;;;;;;4967173;28;20260;-82
2022/07/12 07:02:01;;;;;;;2.03;1.10;;;17.70;99.90;;;;;;4969639;28;20184;-81
2022/07/12 07:04:27;;;;;;;1.48;1.17;;;17.80;99.90;;;;;;4967556;28;20169;-82
2022/07/12 07:06:52;;;;;;;1.27;1.17;;;17.80;99.90;;;;;;4969824;28;20193;-84
2022/07/12 07:09:18;;;;;;;1.10;1.00;;;17.90;99.90;;;;;;4956070;28;20189;-83
2022/07/12 07:11:45;;;;;;;1.75;1.27;;;18.00;99.90;;;;;;4958466;29;20540;-85
2022/07/12 07:14:10;;;;;;;2.00;1.33;;;18.10;99.90;;;;;;4958195;29;20166;-86
2022/07/12 07:16:36;;;;;;;6.57;1.48;;;18.30;99.90;;;;;;4961850;28;20546;-84
2022/07/12 07:19:02;;;;;;;2.38;1.33;;;18.40;99.90;;;;;;4996789;28;20172;-88
2022/07/12 07:21:28;;;;;;;6.97;1.63;;;18.40;99.90;;;;;;4997586;28;20211;-87
2022/07/12 07:23:55;;;;;;;3.65;1.13;;;18.30;99.90;;;;;;4996352;28;20488;-83
2022/07/12 07:26:21;;;;;;;1.20;1.10;;;18.20;99.90;;;;;;4996232;28;20656;-82
2022/07/12 07:31:36;;;;;;;1.67;1.20;;;18.30;99.90;;;;;;4985219;28;20195;-82
2022/07/12 07:34:02;;;;;;;2.15;1.50;;;18.70;99.90;;;;;;4977257;28;20681;-83
2022/07/12 07:36:28;;;;;;;1.70;1.42;;;18.90;99.90;;;;;;4977676;28;20488;-85
2022/07/12 07:38:54;;;;;;;2.97;1.20;;;19.20;99.90;;;;;;4983099;28;20195;-84
2022/07/12 07:41:19;;;;;;;1.77;1.17;;;19.50;99.90;;;;;;4995783;28;20271;-84
2022/07/12 07:43:45;;;;;;;3.55;1.40;;;19.60;99.90;;;;;;4997159;28;20176;-82
2022/07/12 07:46:11;;;;;;;3.50;1.25;;;19.60;99.90;;;;;;4995317;28;20204;-82
2022/07/12 07:48:36;;;;;;;1.67;1.27;;;19.40;99.90;;;;;;4994999;28;20275;-83
2022/07/12 07:51:02;;;;;;;1.48;1.30;;;19.20;99.90;;;;;;4995603;28;20274;-83
2022/07/12 07:53:28;;;;;;;4.22;1.35;;;19.30;99.90;;;;;;4995157;28;20670;-82
2022/07/12 07:55:53;;;;;;;1.30;1.20;;;19.40;99.90;;;;;;4996480;28;20187;-84
2022/07/12 07:58:20;;;;;;;2.83;1.23;;;19.60;99.90;;;;;;4994401;28;20180;-83
2022/07/12 08:00:47;;;;;;;19.38;3.13;;;19.70;99.90;;;;;;4990379;28;20223;-82
2022/07/12 08:03:13;;;;;;;4.90;1.45;;;19.90;99.90;;;;;;4975614;28;20212;-83
2022/07/12 08:05:39;;;;;;;16.05;2.70;;;20.10;99.90;;;;;;4977039;28;20211;-83
2022/07/12 08:08:04;;;;;;;2.05;1.20;;;20.30;99.90;;;;;;4983099;28;20525;-82
2022/07/12 08:10:30;;;;;;;1.38;1.20;;;20.30;99.90;;;;;;4996155;28;20188;-83
2022/07/12 08:12:56;;;;;;;7.75;2.15;;;20.50;99.90;;;;;;4996196;28;20179;-85
2022/07/12 08:15:22;;;;;;;2.47;1.05;;;20.70;99.90;;;;;;4995081;28;20282;-84
2022/07/12 08:17:47;;;;;;;12.20;2.08;;;20.70;99.90;;;;;;4994710;28;20762;-83
2022/07/12 08:20:13;;;;;;;2.08;1.00;;;20.70;99.90;;;;;;4996309;28;20183;-84
2022/07/12 08:22:45;;;;;;;1.77;1.30;;;20.70;99.90;;;;;;4995132;28;20203;-82
2022/07/12 08:25:12;;;;;;;1.17;1.08;;;20.90;99.90;;;;;;4994915;28;20211;-82
2022/07/12 08:27:38;;;;;;;1.35;1.20;;;21.00;99.90;;;;;;4996005;28;20172;-83
2022/07/12 08:30:04;;;;;;;2.05;1.10;;;21.00;99.90;;;;;;4995822;28;20187;-83
2022/07/12 08:32:30;;;;;;;1.42;0.95;;;21.20;99.90;;;;;;4975092;28;20282;-83
2022/07/12 08:34:55;;;;;;;3.92;1.00;;;21.30;99.90;;;;;;4975264;28;20599;-83
2022/07/12 08:37:21;;;;;;;1.85;0.90;;;21.30;99.90;;;;;;4976628;28;20176;-83
2022/07/12 08:39:47;;;;;;;3.20;1.00;;;21.20;99.90;;;;;;4975115;28;20203;-83
2022/07/12 08:42:16;;;;;;;3.28;1.10;;;21.40;99.90;;;;;;4976370;28;20243;-84
2022/07/12 08:44:43;;;;;;;29.10;3.30;;;21.50;99.90;;;;;;4976242;28;20195;-84
2022/07/12 08:47:09;;;;;;;2.90;1.20;;;21.60;99.90;;;;;;4993584;28;20192;-83
2022/07/12 08:49:36;;;;;;;3.55;1.30;;;21.70;99.90;;;;;;4994460;28;20270;-85
2022/07/12 08:52:26;;;;;;;3.08;1.20;;;21.80;99.90;;;;;;4995821;28;20211;-83
2022/07/12 08:54:52;;;;;;;3.50;1.30;;;21.90;99.90;;;;;;4988223;28;20202;-83
2022/07/12 08:57:31;;;;;;;2.35;1.00;;;21.90;99.20;;;;;;4994369;28;20191;-84
2022/07/12 09:00:00;;;;;;;0.95;0.82;;;22.10;99.90;;;;;;4995446;28;20637;-83
2022/07/12 09:02:26;;;;;;;1.65;1.00;;;22.10;99.90;;;;;;4991742;28;20191;-84
2022/07/12 09:05:08;;;;;;;2.40;0.95;;;22.20;99.60;;;;;;4995290;28;20294;-84
2022/07/12 09:07:37;;;;;;;2.72;1.10;;;22.20;99.40;;;;;;4994931;28;20168;-83
2022/07/12 09:10:05;;;;;;;1.17;0.80;;;22.50;99.90;;;;;;4995478;28;20183;-85
2022/07/12 09:12:31;;;;;;;1.65;1.20;;;22.70;99.90;;;;;;4994260;28;20184;-85
2022/07/12 09:15:17;;;;;;;1.58;0.90;;;22.90;98.80;;;;;;4993935;28;20187;-85
2022/07/12 09:17:57;;;;;;;2.17;0.90;;;22.80;98.20;;;;;;4994605;28;20224;-83
2022/07/12 09:20:25;;;;;;;1.33;0.80;;;22.90;99.10;;;;;;4995149;28;20183;-85
2022/07/12 09:22:54;;;;;;;1.35;0.90;;;22.80;97.10;;;;;;4995167;28;20172;-84
2022/07/12 09:25:20;;;;;;;1.08;0.70;;;22.80;98.00;;;;;;4995110;28;20612;-84
2022/07/12 09:27:55;;;;;;;1.13;0.77;;;22.90;98.20;;;;;;4994844;28;20208;-88
2022/07/12 09:30:23;;;;;;;0.63;0.63;;;23.00;96.90;;;;;;4991348;28;20179;-85
2022/07/12 09:38:22;;;;;;;1.40;0.80;;;22.90;98.00;;;;;;4975643;28;20207;-86
2022/07/12 09:40:49;;;;;;;1.50;0.77;;;23.00;98.00;;;;;;4974198;28;20568;-85
2022/07/12 09:43:16;;;;;;;1.10;0.82;;;23.10;98.00;;;;;;4973819;28;20189;-83
2022/07/12 09:45:47;;;;;;;0.63;0.60;;;23.30;97.60;;;;;;4975331;28;20231;-84
2022/07/12 09:48:13;;;;;;;1.45;0.70;;;23.30;97.50;;;;;;4973956;28;20180;-84
2022/07/12 09:50:39;;;;;;;1.35;0.80;;;23.40;97.00;;;;;;4975410;28;20184;-86
2022/07/12 09:53:09;;;;;;;1.08;0.68;;;23.30;97.00;;;;;;4973854;28;20621;-84
2022/07/12 09:55:39;;;;;;;1.58;0.88;;;23.20;97.60;;;;;;4973987;28;20184;-85
2022/07/12 09:58:07;;;;;;;0.68;0.68;;;23.40;97.20;;;;;;4974160;28;20180;-85
2022/07/12 10:00:33;;;;;;;1.25;0.85;;;23.30;97.10;;;;;;4975132;28;20213;-85
2022/07/12 10:03:00;;;;;;;1.55;0.70;;;23.20;97.00;;;;;;4973397;28;20218;-84
2022/07/12 10:05:26;;;;;;;1.00;0.90;;;23.00;95.70;;;;;;4974736;28;20211;-83
2022/07/12 10:07:51;;;;;;;1.23;0.60;;;23.10;97.70;;;;;;4979654;28;20199;-85
2022/07/12 10:10:18;;;;;;;1.00;0.57;;;23.30;97.50;;;;;;4992366;28;20179;-85
2022/07/12 10:12:44;;;;;;;1.48;0.80;;;23.50;96.90;;;;;;4993047;28;20172;-84
2022/07/12 10:15:19;;;;;;;3.58;0.90;;;23.50;95.80;;;;;;4969233;28;20693;-87
2022/07/12 10:17:57;;;;;;;0.90;0.80;;;23.60;96.70;;;;;;4974346;28;20239;-84
2022/07/12 10:20:26;;;;;;;3.53;0.65;;;23.70;96.10;;;;;;4977804;28;20632;-84
2022/07/12 10:22:53;;;;;;;1.10;0.80;;;23.70;96.10;;;;;;4972239;28;20324;-83
2022/07/12 10:25:25;;;;;;;0.80;0.63;;;23.70;94.80;;;;;;4954383;28;20240;-84
2022/07/12 10:27:51;;;;;;;0.75;0.70;;;23.60;94.90;;;;;;4969871;28;20184;-86
2022/07/12 10:30:20;;;;;;;1.23;0.70;;;23.70;95.50;;;;;;4973599;28;20650;-83
2022/07/12 10:32:46;;;;;;;1.00;0.90;;;23.80;94.50;;;;;;4973090;28;20172;-83
2022/07/12 10:35:23;;;;;;;1.10;1.00;;;23.70;94.20;;;;;;4973462;28;20654;-87
2022/07/12 10:38:17;;;;;;;1.08;0.98;;;23.90;95.50;;;;;;4973599;28;20521;-86
2022/07/12 10:40:45;;;;;;;1.35;1.02;;;24.10;94.70;;;;;;4974572;28;20173;-83
2022/07/12 10:43:11;;;;;;;1.33;1.23;;;24.20;94.60;;;;;;4974417;28;20216;-84
2022/07/12 10:45:39;;;;;;;1.55;1.20;;;24.30;93.80;;;;;;4978661;28;20586;-84
2022/07/12 10:48:21;;;;;;;1.77;1.40;;;24.50;93.60;;;;;;4992687;28;20516;-82
2022/07/12 10:50:55;;;;;;;1.33;1.23;;;24.70;95.00;;;;;;4992934;28;20513;-85
2022/07/12 10:53:26;;;;;;;1.60;1.50;;;24.70;93.00;;;;;;4992788;28;20291;-84
2022/07/12 10:56:06;;;;;;;1.50;1.38;;;24.80;93.90;;;;;;4993912;28;20183;-84
2022/07/12 10:58:36;;;;;;;3.15;1.67;;;24.90;93.40;;;;;;4994086;28;20164;-86
2022/07/12 11:01:07;;;;;;;1.85;1.60;;;25.10;92.90;;;;;;4984363;28;20544;-84
2022/07/12 11:03:43;;;;;;;1.70;1.60;;;25.30;92.00;;;;;;4972730;28;20180;-85
2022/07/12 11:06:11;;;;;;;2.10;1.50;;;25.50;91.90;;;;;;4972969;28;20574;-85
2022/07/12 11:09:10;;;;;;;2.00;1.80;;;25.70;91.40;;;;;;4972676;28;20478;-85
2022/07/12 11:11:40;;;;;;;2.03;1.83;;;25.80;92.30;;;;;;4968182;28;20227;-87
2022/07/12 11:14:06;;;;;;;1.98;1.75;;;25.80;91.10;;;;;;4973003;28;20230;-84
2022/07/12 11:16:32;;;;;;;2.83;1.90;;;25.70;91.80;;;;;;4972734;28;20232;-84
2022/07/12 11:18:58;;;;;;;4.63;2.15;;;25.60;91.70;;;;;;4971942;28;20184;-85
2022/07/12 11:21:24;;;;;;;2.08;1.60;;;25.50;92.30;;;;;;4978075;28;20192;-85
2022/07/12 11:23:51;;;;;;;1.95;1.52;;;25.50;91.30;;;;;;4975340;28;20491;-86
2022/07/12 11:26:17;;;;;;;1.70;1.60;;;25.50;91.90;;;;;;4972855;28;20270;-84
2022/07/12 11:28:47;;;;;;;1.77;1.60;;;25.60;91.70;;;;;;4974062;28;20165;-85
2022/07/12 11:31:15;;;;;;;1.52;1.40;;;25.50;91.20;;;;;;4973685;28;20189;-86
2022/07/12 11:33:43;;;;;;;2.13;1.55;;;25.50;91.10;;;;;;4976317;28;20176;-85
2022/07/12 11:36:11;;;;;;;1.65;1.48;;;25.70;91.70;;;;;;4977764;28;20190;-85
2022/07/12 11:38:39;;;;;;;1.85;1.55;;;25.80;91.20;;;;;;4975965;28;20217;-84
2022/07/12 11:41:06;;;;;;;2.10;1.40;;;26.10;91.80;;;;;;4977695;28;20177;-84
2022/07/12 11:43:34;;;;;;;2.65;1.75;;;26.20;90.40;;;;;;4975014;28;20181;-84
2022/07/12 11:46:00;;;;;;;1.85;1.67;;;26.30;90.30;;;;;;4975858;28;20671;-86
2022/07/12 11:48:26;;;;;;;3.97;1.80;;;26.30;89.30;;;;;;4977529;28;20173;-84
2022/07/12 11:50:53;;;;;;;2.97;1.60;;;26.30;90.30;;;;;;4977453;28;20642;-85
2022/07/12 11:53:25;;;;;;;1.70;1.40;;;26.30;89.80;;;;;;4977065;28;20380;-85
2022/07/12 11:55:57;;;;;;;3.72;1.42;;;26.40;87.80;;;;;;4976160;28;20177;-85
2022/07/12 11:58:24;;;;;;;1.40;1.30;;;26.50;89.20;;;;;;4977405;28;20183;-83
2022/07/12 12:00:50;;;;;;;7.03;1.40;;;26.60;87.90;;;;;;4977326;28;20184;-83
2022/07/12 12:03:18;;;;;;;1.70;1.48;;;26.80;89.20;;;;;;4975757;28;20204;-83
2022/07/12 12:05:48;;;;;;;1.60;1.50;;;26.90;87.60;;;;;;4977023;28;20321;-84
2022/07/12 12:08:15;;;;;;;2.00;1.35;;;27.10;86.90;;;;;;4984144;28;20246;-82
2022/07/12 12:10:43;;;;;;;3.33;1.20;;;26.90;85.00;;;;;;4995890;28;20726;-83
2022/07/12 12:13:16;;;;;;;1.77;1.23;;;26.70;84.10;;;;;;4983521;28;20237;-83
2022/07/12 12:15:52;;;;;;;1.02;0.95;;;26.80;84.20;;;;;;4976946;28;20176;-84
2022/07/12 12:18:38;;;;;;;2.70;1.40;;;26.70;83.80;;;;;;4988475;28;20222;-84
2022/07/12 12:21:09;;;;;;;1.30;1.20;;;26.80;84.90;;;;;;4994635;28;20696;-84
2022/07/12 12:23:36;;;;;;;2.70;1.40;;;26.80;87.50;;;;;;4994614;28;20187;-82
2022/07/12 12:26:16;;;;;;;1.33;1.23;;;26.90;85.30;;;;;;4994904;28;20254;-84
2022/07/12 12:28:45;;;;;;;1.20;1.10;;;27.10;86.00;;;;;;4986923;28;20230;-83
2022/07/12 12:31:12;;;;;;;3.33;1.05;;;27.20;86.60;;;;;;4975066;28;20564;-81
2022/07/12 12:33:46;;;;;;;0.93;0.82;;;27.40;84.50;;;;;;4975727;28;21258;-83
2022/07/12 12:36:17;;;;;;;1.02;0.90;;;27.60;84.10;;;;;;4976625;28;20179;-83
2022/07/12 12:38:44;;;;;;;1.27;1.15;;;27.50;80.50;;;;;;4955672;29;20228;-84
2022/07/12 12:41:10;;;;;;;2.78;1.00;;;27.40;79.50;;;;;;4957100;28;20276;-83
2022/07/12 12:43:36;;;;;;;1.70;0.88;;;27.40;77.60;;;;;;4972142;28;20565;-83
2022/07/12 12:46:02;;;;;;;0.80;0.80;;;27.40;78.00;;;;;;4975466;28;20205;-83
2022/07/12 12:48:30;;;;;;;3.35;0.82;;;27.40;78.20;;;;;;4974412;28;20203;-86
2022/07/12 12:51:16;;;;;;;1.17;0.80;;;27.60;79.30;;;;;;4975358;28;20682;-83
2022/07/12 12:53:42;;;;;;;1.30;0.90;;;27.60;79.80;;;;;;4954732;28;20284;-84
2022/07/12 12:56:14;;;;;;;1.27;1.02;;;27.60;79.40;;;;;;4956927;29;20173;-81
2022/07/12 12:58:40;;;;;;;0.95;0.80;;;27.80;81.40;;;;;;4955485;29;20232;-85
2022/07/12 13:01:07;;;;;;;1.13;1.00;;;28.00;79.90;;;;;;4956834;29;20166;-83
2022/07/12 13:03:33;;;;;;;1.17;1.08;;;28.20;78.90;;;;;;4955437;28;20268;-83